Time;durP1;ratioP1;P1;durP2;ratioP2;P2;SDS_P1;SDS_P2;PMS_P1;PMS_P2;Temp;Humidity;BMP_temperature;BMP_pressure;BME280_temperature;BME280_humidity;BME280_pressure;Samples;Min_cycle;Max_cycle;Signal;HPM_P1;HPM_P2
2022/10/26 00:00:30;;;;;;;0.17;0.17;;;;;;;9.73;100.00;96544.97;4953946;28;20361;-74
2022/10/26 00:03:16;;;;;;;0.20;0.20;;;;;;;9.74;100.00;96530.56;4953990;28;20078;-76
2022/10/26 00:06:08;;;;;;;0.10;0.10;;;;;;;9.77;100.00;96534.59;4953143;28;20566;-74
2022/10/26 00:08:55;;;;;;;0.10;0.10;;;;;;;9.77;100.00;96527.41;4952944;28;20075;-76
2022/10/26 00:11:41;;;;;;;0.10;0.10;;;;;;;9.77;100.00;96530.06;4954817;28;20396;-74
2022/10/26 00:14:28;;;;;;;0.10;0.10;;;;;;;9.73;100.00;96531.63;4949847;28;20113;-74
2022/10/26 00:17:14;;;;;;;0.10;0.10;;;;;;;9.80;100.00;96527.94;4950787;28;20054;-73
2022/10/26 00:20:01;;;;;;;0.20;0.20;;;;;;;9.86;100.00;96519.78;4950503;28;20045;-74
2022/10/26 00:22:47;;;;;;;0.10;0.10;;;;;;;9.88;100.00;96517.66;4953945;28;20130;-73
2022/10/26 00:25:33;;;;;;;0.10;0.10;;;;;;;9.92;100.00;96518.81;4955004;28;20054;-74
2022/10/26 00:28:22;;;;;;;0.10;0.10;;;;;;;9.86;100.00;96514.44;4952522;28;20046;-75
2022/10/26 00:31:14;;;;;;;0.10;0.10;;;;;;;9.86;100.00;96511.75;4950987;28;20054;-72
2022/10/26 00:34:00;;;;;;;0.10;0.10;;;;;;;9.93;100.00;96517.75;4954567;28;20110;-73
2022/10/26 00:36:45;;;;;;;0.10;0.10;;;;;;;10.00;100.00;96514.94;4953343;28;20150;-74
2022/10/26 00:39:31;;;;;;;0.10;0.10;;;;;;;9.98;100.00;96517.84;4954149;28;20495;-75
2022/10/26 00:42:19;;;;;;;0.10;0.10;;;;;;;10.05;100.00;96517.69;4949557;28;20039;-75
2022/10/26 00:45:27;;;;;;;0.25;0.10;;;;;;;10.10;100.00;96516.94;4953535;28;20045;-74
2022/10/26 00:48:37;;;;;;;0.10;0.10;;;;;;;10.15;100.00;96515.19;4952625;28;20046;-74
2022/10/26 00:51:31;;;;;;;0.10;0.10;;;;;;;10.18;100.00;96501.31;4950590;28;20047;-75
2022/10/26 00:54:18;;;;;;;0.10;0.10;;;;;;;10.20;100.00;96509.91;4950880;28;20574;-75
2022/10/26 00:57:04;;;;;;;0.10;0.10;;;;;;;10.18;100.00;96514.69;4951455;28;20054;-75
2022/10/26 00:59:54;;;;;;;0.10;0.10;;;;;;;10.20;100.00;96514.47;4953865;28;20043;-74
2022/10/26 01:02:40;;;;;;;0.10;0.10;;;;;;;10.24;100.00;96528.97;4951722;28;20090;-73
2022/10/26 01:05:27;;;;;;;0.10;0.10;;;;;;;10.22;100.00;96547.94;4952304;28;20058;-74
2022/10/26 01:08:16;;;;;;;0.10;0.10;;;;;;;10.21;100.00;96551.66;4950716;28;20050;-74
2022/10/26 01:11:03;;;;;;;0.10;0.10;;;;;;;10.19;100.00;96545.72;4952414;28;21102;-74
2022/10/26 01:13:53;;;;;;;0.10;0.10;;;;;;;10.23;100.00;96538.06;4952772;28;20047;-73
2022/10/26 01:17:10;;;;;;;0.35;0.20;;;;;;;10.27;100.00;96532.00;4952366;28;20038;-72
2022/10/26 01:20:50;;;;;;;0.10;0.10;;;;;;;10.27;100.00;96537.34;4936489;28;20430;-75
2022/10/26 01:23:55;;;;;;;0.10;0.10;;;;;;;10.26;100.00;96533.00;4935618;28;20129;-75
2022/10/26 01:27:22;;;;;;;0.10;0.10;;;;;;;10.26;100.00;96524.19;4952151;28;20814;-73
2022/10/26 01:30:11;;;;;;;0.20;0.10;;;;;;;10.36;100.00;96521.69;4941554;28;20046;-73
2022/10/26 01:33:28;;;;;;;0.10;0.10;;;;;;;10.42;100.00;96517.19;4951770;28;20102;-75
2022/10/26 01:36:28;;;;;;;0.10;0.10;;;;;;;10.46;100.00;96515.66;4954516;28;20035;-73
2022/10/26 01:39:23;;;;;;;0.10;0.10;;;;;;;10.41;100.00;96511.03;4950669;28;20114;-74
2022/10/26 01:42:15;;;;;;;0.10;0.10;;;;;;;10.32;100.00;96513.31;4953111;28;20138;-74
2022/10/26 01:45:08;;;;;;;0.20;0.20;;;;;;;10.31;100.00;96506.34;4953908;28;20104;-75
2022/10/26 01:47:55;;;;;;;0.10;0.10;;;;;;;10.39;100.00;96499.78;4936857;28;20054;-75
2022/10/26 01:50:44;;;;;;;0.10;0.10;;;;;;;10.46;100.00;96491.59;4951445;28;20982;-74
2022/10/26 01:53:29;;;;;;;0.22;0.10;;;;;;;10.47;100.00;96496.69;4949119;28;20070;-74
2022/10/26 01:56:20;;;;;;;0.10;0.10;;;;;;;10.43;100.00;96497.44;4950325;28;20050;-75
2022/10/26 01:59:17;;;;;;;0.10;0.10;;;;;;;10.39;100.00;96498.97;4946985;28;20039;-76
2022/10/26 02:02:36;;;;;;;0.10;0.10;;;;;;;10.37;100.00;96501.91;4951713;28;20142;-75
2022/10/26 02:05:49;;;;;;;0.10;0.10;;;;;;;10.38;100.00;96500.03;4936509;28;20055;-74
2022/10/26 02:08:54;;;;;;;0.10;0.10;;;;;;;10.39;100.00;96507.00;4951157;28;20061;-76
2022/10/26 02:11:47;;;;;;;0.17;0.17;;;;;;;10.39;100.00;96496.28;4951912;28;20374;-75
2022/10/26 02:14:46;;;;;;;0.10;0.10;;;;;;;10.39;100.00;96488.28;4953012;28;20051;-76
2022/10/26 02:17:50;;;;;;;0.10;0.10;;;;;;;10.41;100.00;96483.47;4938127;28;20069;-74
2022/10/26 02:20:43;;;;;;;0.10;0.10;;;;;;;10.46;100.00;96475.53;4951136;28;20411;-74
2022/10/26 02:23:33;;;;;;;0.10;0.10;;;;;;;10.47;100.00;96477.97;4952758;28;20051;-74
2022/10/26 02:26:23;;;;;;;0.10;0.10;;;;;;;10.48;100.00;96478.75;4952862;28;20441;-74
2022/10/26 02:29:14;;;;;;;0.10;0.10;;;;;;;10.48;100.00;96474.22;4949029;28;20043;-73
2022/10/26 02:32:02;;;;;;;0.10;0.10;;;;;;;10.48;100.00;96479.56;4949819;28;20121;-74
2022/10/26 02:34:50;;;;;;;0.10;0.10;;;;;;;10.49;100.00;96485.72;4951086;28;20047;-74
2022/10/26 02:37:38;;;;;;;0.10;0.10;;;;;;;10.47;100.00;96479.81;4952440;28;20209;-74
2022/10/26 02:40:28;;;;;;;0.10;0.10;;;;;;;10.48;100.00;96474.22;4934972;28;20038;-74
2022/10/26 02:43:20;;;;;;;0.10;0.10;;;;;;;10.53;100.00;96479.66;4950979;28;20038;-74
2022/10/26 02:46:14;;;;;;;0.10;0.10;;;;;;;10.51;100.00;96468.41;4952331;28;20046;-76
2022/10/26 02:49:00;;;;;;;0.10;0.10;;;;;;;10.55;100.00;96476.72;4949709;28;20074;-74
2022/10/26 02:51:57;;;;;;;0.10;0.10;;;;;;;10.57;100.00;96461.22;4950476;28;20054;-75
2022/10/26 02:54:56;;;;;;;0.17;0.17;;;;;;;10.62;100.00;96468.50;4952631;28;20438;-74
2022/10/26 02:57:46;;;;;;;0.10;0.10;;;;;;;10.62;100.00;96469.31;4949327;28;20074;-75
2022/10/26 03:00:32;;;;;;;0.10;0.10;;;;;;;10.62;100.00;96473.88;4935125;28;20059;-75
2022/10/26 03:03:19;;;;;;;0.10;0.10;;;;;;;10.61;100.00;96473.06;4946311;28;20614;-75
2022/10/26 03:06:05;;;;;;;0.10;0.10;;;;;;;10.59;100.00;96473.31;4950477;28;20047;-74
2022/10/26 03:08:51;;;;;;;0.10;0.10;;;;;;;10.59;100.00;96464.47;4949583;28;20043;-74
2022/10/26 03:11:37;;;;;;;0.10;0.10;;;;;;;10.58;100.00;96462.84;4950052;28;20047;-73
2022/10/26 03:14:23;;;;;;;0.10;0.10;;;;;;;10.56;100.00;96464.97;4952727;28;20057;-74
2022/10/26 03:17:09;;;;;;;0.10;0.10;;;;;;;10.59;100.00;96464.47;4938229;28;20195;-74
2022/10/26 03:19:55;;;;;;;0.10;0.10;;;;;;;10.55;100.00;96468.69;4949521;28;20479;-74
2022/10/26 03:22:40;;;;;;;0.10;0.10;;;;;;;10.57;100.00;96472.72;4951555;28;20138;-73
2022/10/26 03:25:26;;;;;;;0.10;0.10;;;;;;;10.58;100.00;96466.34;4949055;28;20047;-75
2022/10/26 03:28:14;;;;;;;0.10;0.10;;;;;;;10.56;100.00;96470.31;4947932;28;20039;-75
2022/10/26 03:31:00;;;;;;;0.15;0.15;;;;;;;10.58;100.00;96474.38;4950288;28;20054;-73
2022/10/26 03:33:46;;;;;;;0.17;0.15;;;;;;;10.56;100.00;96472.97;4950174;28;20673;-76
2022/10/26 03:36:32;;;;;;;0.13;0.13;;;;;;;10.53;100.00;96471.63;4949313;28;20557;-76
2022/10/26 03:39:18;;;;;;;0.10;0.10;;;;;;;10.54;100.00;96472.44;4951456;28;20542;-75
2022/10/26 03:42:04;;;;;;;0.20;0.20;;;;;;;10.56;100.00;96471.13;4949377;28;20434;-74
2022/10/26 03:44:50;;;;;;;0.10;0.10;;;;;;;10.51;100.00;96481.78;4951519;28;20035;-76
2022/10/26 03:47:47;;;;;;;0.10;0.10;;;;;;;10.50;100.00;96480.13;4952499;28;20039;-74
2022/10/26 03:50:33;;;;;;;0.10;0.10;;;;;;;10.51;100.00;96481.78;4952826;28;20042;-73
2022/10/26 03:53:19;;;;;;;0.20;0.20;;;;;;;10.50;100.00;96476.66;4953174;28;20043;-74
2022/10/26 03:56:05;;;;;;;0.10;0.10;;;;;;;10.51;100.00;96483.63;4954707;28;20410;-75
2022/10/26 03:58:51;;;;;;;0.20;0.20;;;;;;;10.51;100.00;96480.97;4954108;28;20043;-74
2022/10/26 04:01:37;;;;;;;0.10;0.10;;;;;;;10.59;100.00;96475.19;4937479;28;20312;-75
2022/10/26 04:04:23;;;;;;;0.10;0.10;;;;;;;10.60;100.00;96471.44;4953964;28;20046;-74
2022/10/26 04:07:09;;;;;;;0.10;0.10;;;;;;;10.63;100.00;96464.78;4952300;28;20554;-74
2022/10/26 04:09:55;;;;;;;0.10;0.10;;;;;;;10.67;100.00;96469.41;4953920;28;20498;-74
2022/10/26 04:12:41;;;;;;;0.10;0.10;;;;;;;10.73;100.00;96464.91;4954969;28;20043;-75
2022/10/26 04:15:28;;;;;;;0.20;0.13;;;;;;;10.65;100.00;96443.94;4957709;28;20047;-75
2022/10/26 04:18:14;;;;;;;0.20;0.20;;;;;;;10.75;100.00;96457.44;4953628;28;20149;-76
2022/10/26 04:21:01;;;;;;;0.10;0.10;;;;;;;10.80;100.00;96465.53;4955587;28;20039;-74
2022/10/26 04:23:46;;;;;;;0.10;0.10;;;;;;;10.74;100.00;96464.66;4955153;28;20055;-76
2022/10/26 04:26:32;;;;;;;0.10;0.10;;;;;;;10.76;100.00;96462.53;4955937;28;20049;-75
2022/10/26 04:29:18;;;;;;;0.10;0.10;;;;;;;10.80;100.00;96468.19;4953113;28;20093;-75
2022/10/26 04:32:06;;;;;;;0.10;0.10;;;;;;;10.75;100.00;96468.16;4958267;28;20091;-76
2022/10/26 04:34:53;;;;;;;0.10;0.10;;;;;;;10.80;100.00;96463.66;4944582;28;20054;-76
2022/10/26 04:37:39;;;;;;;0.10;0.10;;;;;;;10.87;100.00;96461.59;4957568;28;20435;-75
2022/10/26 04:40:25;;;;;;;0.10;0.10;;;;;;;10.94;100.00;96458.72;4955691;28;20038;-75
2022/10/26 04:43:11;;;;;;;0.10;0.10;;;;;;;10.92;100.00;96465.41;4954402;28;20073;-76
2022/10/26 04:45:57;;;;;;;0.10;0.10;;;;;;;10.88;100.00;96465.09;4956463;28;20043;-76
2022/10/26 04:48:45;;;;;;;0.10;0.10;;;;;;;10.93;100.00;96459.00;4955727;28;20657;-76
2022/10/26 04:51:31;;;;;;;0.10;0.10;;;;;;;10.95;100.00;96456.88;4941996;28;20046;-77
2022/10/26 04:54:17;;;;;;;0.10;0.10;;;;;;;10.99;100.00;96453.44;4954751;28;20074;-76
2022/10/26 04:57:09;;;;;;;0.10;0.10;;;;;;;10.96;100.00;96453.94;4958714;28;20047;-76
2022/10/26 04:59:55;;;;;;;0.10;0.10;;;;;;;11.01;100.00;96450.50;4956613;28;20605;-76
2022/10/26 05:02:40;;;;;;;0.10;0.10;;;;;;;11.03;100.00;96443.03;4959865;28;20055;-76
2022/10/26 05:05:27;;;;;;;0.10;0.10;;;;;;;11.00;100.00;96443.53;4954565;28;21086;-75
2022/10/26 05:08:13;;;;;;;0.10;0.10;;;;;;;11.00;100.00;96428.28;4941238;28;20122;-75
2022/10/26 05:10:59;;;;;;;0.10;0.10;;;;;;;11.04;100.00;96441.97;4956097;28;20133;-75
2022/10/26 05:13:48;;;;;;;0.08;0.08;;;;;;;11.03;100.00;96443.03;4944230;28;20113;-75
2022/10/26 05:16:33;;;;;;;0.10;0.10;;;;;;;11.05;100.00;96438.22;4946016;28;20047;-76
2022/10/26 05:19:19;;;;;;;0.20;0.13;;;;;;;11.08;100.00;96448.44;4956821;28;20527;-76
2022/10/26 05:22:05;;;;;;;0.10;0.10;;;;;;;11.09;100.00;96448.19;4956069;28;20325;-76
2022/10/26 05:24:51;;;;;;;0.10;0.10;;;;;;;11.10;100.00;96443.66;4955236;28;20660;-77
2022/10/26 05:27:37;;;;;;;0.10;0.10;;;;;;;11.10;100.00;96444.44;4956713;28;20055;-76
2022/10/26 05:30:23;;;;;;;0.10;0.10;;;;;;;11.11;100.00;96437.22;4953870;28;20038;-77
2022/10/26 05:33:10;;;;;;;0.10;0.10;;;;;;;11.12;100.00;96426.25;4953639;28;20177;-77
2022/10/26 05:35:56;;;;;;;0.10;0.10;;;;;;;11.03;100.00;96441.16;4959308;28;20409;-75
2022/10/26 05:38:42;;;;;;;0.10;0.10;;;;;;;10.99;100.00;96440.06;4955854;28;20050;-76
2022/10/26 05:41:28;;;;;;;0.10;0.10;;;;;;;11.01;100.00;96448.66;4954692;28;20049;-76
2022/10/26 05:44:13;;;;;;;0.20;0.20;;;;;;;11.03;100.00;96453.75;4957029;28;20492;-75
2022/10/26 05:46:59;;;;;;;0.10;0.10;;;;;;;11.10;100.00;96444.44;4954361;28;20538;-76
2022/10/26 05:49:45;;;;;;;0.10;0.10;;;;;;;11.15;100.00;96446.38;4956913;28;20522;-77
2022/10/26 05:52:40;;;;;;;0.20;0.20;;;;;;;11.14;100.00;96442.91;4953992;28;20172;-75
2022/10/26 05:55:26;;;;;;;0.10;0.10;;;;;;;11.19;100.00;96428.75;4953641;28;21278;-76
2022/10/26 05:58:14;;;;;;;0.10;0.10;;;;;;;11.20;100.00;96432.22;4954023;28;20379;-77
2022/10/26 06:01:32;;;;;;;0.10;0.10;;;;;;;11.16;100.00;96438.09;4955011;28;20059;-75
2022/10/26 06:04:31;;;;;;;0.10;0.10;;;;;;;11.04;100.00;96434.75;4915473;28;20482;-76
2022/10/26 06:07:21;;;;;;;0.20;0.20;;;;;;;11.09;100.00;96437.47;4954417;28;20101;-76
2022/10/26 06:10:10;;;;;;;0.40;0.13;;;;;;;11.08;100.00;96438.53;4955476;28;20049;-75
2022/10/26 06:12:56;;;;;;;0.10;0.10;;;;;;;11.05;100.00;96456.97;4954838;28;20462;-76
2022/10/26 06:15:51;;;;;;;0.10;0.10;;;;;;;11.02;100.00;96452.13;4954326;28;20145;-75
2022/10/26 06:19:11;;;;;;;0.10;0.10;;;;;;;10.96;100.00;96437.06;4951751;28;20566;-75
2022/10/26 06:22:00;;;;;;;0.10;0.10;;;;;;;11.02;100.00;96447.56;4955532;28;20042;-77
2022/10/26 06:25:01;;;;;;;0.10;0.10;;;;;;;11.04;100.00;96450.81;4956332;28;20042;-76
2022/10/26 06:28:05;;;;;;;0.10;0.10;;;;;;;11.04;100.00;96445.44;4954176;28;20155;-74
2022/10/26 06:30:51;;;;;;;0.10;0.10;;;;;;;11.02;100.00;96462.84;4954172;28;20483;-74
2022/10/26 06:33:37;;;;;;;0.10;0.10;;;;;;;11.07;100.00;96455.69;4953257;28;20048;-75
2022/10/26 06:36:26;;;;;;;0.22;0.20;;;;;;;11.08;100.00;96453.81;4954755;28;20134;-75
2022/10/26 06:39:23;;;;;;;0.10;0.10;;;;;;;11.10;100.00;96459.72;4955081;28;20039;-75
2022/10/26 06:42:10;;;;;;;0.10;0.10;;;;;;;11.08;100.00;96462.66;4954203;28;20043;-77
2022/10/26 06:44:57;;;;;;;0.10;0.10;;;;;;;11.19;100.00;96460.88;4951363;28;20053;-74
2022/10/26 06:47:53;;;;;;;0.10;0.10;;;;;;;11.13;100.00;96459.22;4935477;28;20396;-76
2022/10/26 06:50:51;;;;;;;0.10;0.10;;;;;;;11.11;100.00;96456.78;4953198;28;20089;-75
2022/10/26 06:53:54;;;;;;;0.10;0.10;;;;;;;11.10;100.00;96473.09;4952720;28;20521;-77
2022/10/26 06:56:40;;;;;;;0.10;0.10;;;;;;;11.13;100.00;96486.00;4947819;28;20047;-75
2022/10/26 06:59:36;;;;;;;0.10;0.10;;;;;;;11.11;100.00;96475.53;4950812;28;20110;-77
2022/10/26 07:02:22;;;;;;;0.10;0.10;;;;;;;11.14;100.00;96483.06;4949479;28;20054;-76
2022/10/26 07:05:11;;;;;;;0.10;0.10;;;;;;;11.16;100.00;96497.00;4945826;28;20574;-76
2022/10/26 07:07:58;;;;;;;0.20;0.20;;;;;;;11.18;100.00;96495.94;4952822;28;20093;-76
2022/10/26 07:10:45;;;;;;;0.10;0.10;;;;;;;11.20;100.00;96510.69;4955084;28;20055;-76
2022/10/26 07:13:31;;;;;;;0.20;0.20;;;;;;;11.23;100.00;96531.66;4950300;28;20046;-75
2022/10/26 07:16:17;;;;;;;0.20;0.20;;;;;;;11.22;100.00;96530.03;4953912;28;20336;-75
2022/10/26 07:19:03;;;;;;;0.13;0.13;;;;;;;11.23;100.00;96539.69;4929609;28;20070;-76
2022/10/26 07:21:49;;;;;;;0.20;0.20;;;;;;;11.32;100.00;96540.03;4953399;28;20050;-76
2022/10/26 07:24:34;;;;;;;0.10;0.10;;;;;;;11.27;100.00;96534.63;4952981;28;20542;-75
2022/10/26 07:27:22;;;;;;;0.10;0.10;;;;;;;11.36;100.00;96543.81;4950054;28;20051;-76
2022/10/26 07:30:10;;;;;;;0.17;0.17;;;;;;;11.36;100.00;96538.47;4940728;28;20449;-75
2022/10/26 07:33:10;;;;;;;0.20;0.20;;;;;;;11.46;100.00;96545.84;4957492;28;20511;-74
2022/10/26 07:35:58;;;;;;;0.20;0.20;;;;;;;11.53;100.00;96547.25;4958442;28;20607;-75
2022/10/26 07:38:44;;;;;;;0.20;0.15;;;;;;;11.65;100.00;96542.53;4960084;28;20260;-75
2022/10/26 07:41:30;;;;;;;0.10;0.10;;;;;;;11.58;100.00;96541.94;4956234;28;20051;-76
2022/10/26 07:44:16;;;;;;;0.10;0.10;;;;;;;11.55;100.00;96552.34;4955612;28;20579;-76
2022/10/26 07:47:01;;;;;;;0.10;0.10;;;;;;;11.67;100.00;96550.31;4957999;28;20078;-76
2022/10/26 07:49:47;;;;;;;0.10;0.10;;;;;;;11.67;100.00;96555.69;4955694;28;20047;-76
2022/10/26 07:52:35;;;;;;;0.10;0.10;;;;;;;11.94;100.00;96543.13;4956979;28;20190;-76
2022/10/26 07:55:21;;;;;;;0.20;0.20;;;;;;;12.09;100.00;96553.16;4952814;28;20039;-76
2022/10/26 07:58:07;;;;;;;0.15;0.15;;;;;;;12.16;100.00;96561.00;4954977;28;20044;-76
2022/10/26 08:00:54;;;;;;;0.40;0.20;;;;;;;12.43;100.00;96564.44;4944536;28;20387;-75
2022/10/26 08:03:40;;;;;;;0.43;0.30;;;;;;;12.55;100.00;96559.69;4942497;28;20046;-75
2022/10/26 08:06:26;;;;;;;0.13;0.13;;;;;;;12.65;100.00;96568.88;4956556;28;21713;-76
2022/10/26 08:09:12;;;;;;;0.10;0.10;;;;;;;12.68;100.00;96587.16;4955893;28;20047;-75
2022/10/26 08:11:57;;;;;;;0.10;0.10;;;;;;;12.65;100.00;96577.75;4947473;28;20039;-74
2022/10/26 08:14:44;;;;;;;0.20;0.20;;;;;;;12.70;100.00;96580.47;4954915;28;20313;-75
2022/10/26 08:17:29;;;;;;;0.10;0.10;;;;;;;12.73;100.00;96576.44;4954214;28;20538;-76
2022/10/26 08:20:15;;;;;;;0.13;0.13;;;;;;;12.65;100.00;96577.75;4954410;28;20042;-75
2022/10/26 08:23:04;;;;;;;0.10;0.10;;;;;;;12.58;100.00;96587.88;4953924;28;20046;-75
2022/10/26 08:25:50;;;;;;;0.10;0.10;;;;;;;12.51;100.00;96580.06;4955824;28;20126;-75
2022/10/26 08:28:37;;;;;;;0.10;0.10;;;;;;;12.66;100.00;96581.22;4954581;28;20268;-76
2022/10/26 08:31:23;;;;;;;0.10;0.10;;;;;;;12.68;100.00;96584.47;4953638;28;20101;-75
2022/10/26 08:34:09;;;;;;;0.15;0.10;;;;;;;12.63;100.00;96590.63;4956738;28;20050;-75
2022/10/26 08:36:55;;;;;;;0.10;0.10;;;;;;;12.79;100.00;96578.09;4953959;28;20473;-75
2022/10/26 08:39:40;;;;;;;0.15;0.15;;;;;;;12.78;100.00;96587.22;4921631;28;20047;-75
2022/10/26 08:42:45;;;;;;;0.10;0.10;;;;;;;12.77;100.00;96567.63;4950452;28;22223;-74
2022/10/26 08:45:37;;;;;;;0.17;0.17;;;;;;;12.73;100.00;96563.03;4955129;28;20038;-74
2022/10/26 08:48:33;;;;;;;0.10;0.10;;;;;;;13.02;100.00;96564.28;4951581;28;20058;-76
2022/10/26 08:51:36;;;;;;;0.10;0.10;;;;;;;12.89;100.00;96570.09;4952237;28;20047;-74
2022/10/26 08:54:50;;;;;;;0.10;0.10;;;;;;;12.63;100.00;96579.06;4956173;28;20046;-75
2022/10/26 08:57:40;;;;;;;0.20;0.20;;;;;;;12.58;100.00;96584.41;4953365;28;20051;-75
2022/10/26 09:00:29;;;;;;;0.47;0.20;;;;;;;12.62;100.00;96572.91;4953382;28;20744;-75
2022/10/26 09:03:17;;;;;;;0.20;0.20;;;;;;;12.90;100.00;96579.78;4954982;28;20043;-76
2022/10/26 09:06:17;;;;;;;0.17;0.17;;;;;;;13.01;100.00;96573.41;4954076;28;20428;-75
2022/10/26 09:09:37;;;;;;;0.38;0.25;;;;;;;13.05;100.00;96579.84;4955087;28;20567;-75
2022/10/26 09:12:44;;;;;;;0.10;0.10;;;;;;;13.19;100.00;96582.06;4951295;28;20043;-77
2022/10/26 09:15:53;;;;;;;0.10;0.10;;;;;;;13.31;100.00;96586.22;4953520;28;20127;-77
2022/10/26 09:18:46;;;;;;;0.15;0.15;;;;;;;13.57;100.00;96570.16;4954690;28;20042;-77
2022/10/26 09:21:57;;;;;;;0.10;0.10;;;;;;;14.19;100.00;96596.09;4954463;28;20046;-77
2022/10/26 09:24:53;;;;;;;0.20;0.20;;;;;;;14.86;100.00;96595.00;4959531;28;20046;-77
2022/10/26 09:27:43;;;;;;;0.20;0.20;;;;;;;15.40;100.00;96598.91;4955971;28;20045;-77
2022/10/26 09:30:29;;;;;;;0.20;0.20;;;;;;;14.96;100.00;96605.00;4940221;28;20054;-77
2022/10/26 09:33:20;;;;;;;0.10;0.10;;;;;;;14.88;100.00;96597.47;4955945;28;20204;-76
2022/10/26 09:36:12;;;;;;;0.20;0.20;;;;;;;15.54;100.00;96606.16;4960545;28;20047;-77
2022/10/26 09:39:26;;;;;;;0.22;0.20;;;;;;;14.96;100.00;96610.38;4953089;28;20245;-77
2022/10/26 09:42:24;;;;;;;0.10;0.10;;;;;;;14.82;100.00;96609.31;4952848;28;20047;-77
2022/10/26 09:45:17;;;;;;;0.20;0.20;;;;;;;16.99;100.00;96608.44;4954418;28;20061;-77
2022/10/26 09:48:12;;;;;;;0.20;0.20;;;;;;;19.18;100.00;96608.91;4951518;28;20038;-74
2022/10/26 09:50:59;;;;;;;0.20;0.20;;;;;;;20.88;100.00;96593.31;4954037;28;20384;-75
2022/10/26 09:53:47;;;;;;;0.30;0.30;;;;;;;20.91;100.00;96619.84;4951665;28;20039;-75
2022/10/26 09:56:36;;;;;;;0.20;0.20;;;;;;;20.41;100.00;96604.47;4952882;28;20042;-74
2022/10/26 09:59:25;;;;;;;0.20;0.20;;;;;;;19.37;100.00;96610.72;4952493;28;20511;-75
2022/10/26 10:02:33;;;;;;;0.10;0.10;;;;;;;19.03;100.00;96611.09;4954237;28;20040;-75
2022/10/26 10:05:23;;;;;;;0.30;0.30;;;;;;;21.57;100.00;96605.34;4953130;28;20745;-74
2022/10/26 10:08:38;;;;;;;0.20;0.20;;;;;;;23.35;91.96;96620.78;4951466;28;20051;-77
2022/10/26 10:11:37;;;;;;;0.20;0.20;;;;;;;19.79;100.00;96634.06;4947518;28;20137;-76
2022/10/26 10:14:26;;;;;;;0.10;0.10;;;;;;;18.12;100.00;96640.41;4953194;28;20569;-77
2022/10/26 10:17:21;;;;;;;0.10;0.10;;;;;;;17.25;100.00;96654.94;4953888;28;20443;-76
2022/10/26 10:20:11;;;;;;;0.10;0.10;;;;;;;16.34;100.00;96662.72;4953075;28;20494;-76
2022/10/26 10:23:03;;;;;;;0.20;0.20;;;;;;;15.98;100.00;96658.59;4952861;28;20054;-76
2022/10/26 10:26:01;;;;;;;0.10;0.10;;;;;;;15.44;100.00;96665.50;4954531;28;20278;-75
2022/10/26 10:28:59;;;;;;;0.10;0.10;;;;;;;15.29;100.00;96660.16;4268867;28;10001477;-75
2022/10/26 10:31:55;;;;;;;0.40;0.20;;;;;;;15.18;100.00;96675.56;4952453;28;20042;-76
2022/10/26 10:34:42;;;;;;;0.10;0.10;;;;;;;15.09;100.00;96682.56;4934610;28;20054;-76
2022/10/26 10:37:41;;;;;;;0.17;0.10;;;;;;;14.88;100.00;96691.75;4952366;28;20086;-77
2022/10/26 10:40:30;;;;;;;0.10;0.10;;;;;;;15.07;100.00;96689.31;4954834;28;20049;-76
2022/10/26 10:43:16;;;;;;;0.20;0.20;;;;;;;15.20;100.00;96692.25;4950414;28;20051;-76
2022/10/26 10:46:02;;;;;;;0.10;0.10;;;;;;;15.19;100.00;96689.84;4954178;28;20074;-77
2022/10/26 10:48:53;;;;;;;0.20;0.20;;;;;;;15.60;100.00;96694.06;4940883;28;20294;-76
2022/10/26 10:51:40;;;;;;;0.10;0.10;;;;;;;15.70;100.00;96704.03;4954323;28;20352;-76
2022/10/26 10:54:25;;;;;;;0.10;0.10;;;;;;;16.06;100.00;96710.09;4949461;28;20038;-75
2022/10/26 10:57:19;;;;;;;0.20;0.20;;;;;;;16.41;100.00;96703.69;4948547;28;20042;-75
2022/10/26 11:00:08;;;;;;;0.10;0.10;;;;;;;16.51;100.00;96710.13;4949739;28;20070;-75
2022/10/26 11:03:01;;;;;;;0.22;0.20;;;;;;;16.81;100.00;96698.31;4956429;28;20136;-75
2022/10/26 11:05:53;;;;;;;0.13;0.10;;;;;;;17.10;100.00;96706.47;4955774;28;20573;-77
2022/10/26 11:08:44;;;;;;;0.10;0.10;;;;;;;16.88;100.00;96715.81;4954026;28;20043;-75
2022/10/26 11:11:39;;;;;;;0.20;0.20;;;;;;;17.20;100.00;96717.19;4954234;28;20051;-76
2022/10/26 11:14:34;;;;;;;0.10;0.10;;;;;;;17.71;100.00;96716.72;4954327;28;20035;-76
2022/10/26 11:17:24;;;;;;;0.13;0.10;;;;;;;18.12;100.00;96717.03;4956377;28;20523;-76
2022/10/26 11:20:23;;;;;;;0.10;0.10;;;;;;;18.56;100.00;96710.50;4953147;28;20065;-76
2022/10/26 11:23:19;;;;;;;0.10;0.10;;;;;;;19.14;100.00;96705.53;4953883;28;20046;-76
2022/10/26 11:26:14;;;;;;;0.10;0.10;;;;;;;19.28;100.00;96715.59;4959159;28;20042;-75
2022/10/26 11:29:05;;;;;;;0.10;0.10;;;;;;;19.39;100.00;96715.16;4957211;28;20138;-77
2022/10/26 11:32:02;;;;;;;0.20;0.20;;;;;;;19.92;100.00;96713.91;4956446;28;20051;-75
2022/10/26 11:35:20;;;;;;;0.10;0.10;;;;;;;19.07;100.00;96710.53;4957417;28;20050;-75
2022/10/26 11:38:43;;;;;;;0.20;0.10;;;;;;;19.21;100.00;96724.94;4930734;28;20049;-76
2022/10/26 11:41:54;;;;;;;0.20;0.20;;;;;;;19.51;100.00;96719.28;4954243;28;20071;-77
2022/10/26 11:45:04;;;;;;;0.28;0.20;;;;;;;18.55;100.00;96725.13;4960004;28;20116;-75
2022/10/26 11:48:03;;;;;;;0.10;0.10;;;;;;;19.13;100.00;96731.03;4919011;28;20046;-75
2022/10/26 11:50:57;;;;;;;0.10;0.10;;;;;;;19.42;100.00;96725.38;4941004;28;20076;-78
2022/10/26 11:53:45;;;;;;;0.20;0.20;;;;;;;20.49;100.00;96728.78;4956508;28;20051;-76
2022/10/26 11:56:37;;;;;;;0.10;0.10;;;;;;;22.13;100.00;96722.81;4956920;28;20393;-77
2022/10/26 11:59:30;;;;;;;0.20;0.20;;;;;;;25.60;86.45;96720.41;4956354;28;20353;-78
2022/10/26 12:02:21;;;;;;;0.20;0.20;;;;;;;27.95;65.00;96719.31;4952617;28;20043;-75
2022/10/26 12:05:20;;;;;;;0.10;0.10;;;;;;;29.70;61.52;96725.91;4954913;28;20077;-77
2022/10/26 12:08:22;;;;;;;0.10;0.10;;;;;;;30.87;44.83;96731.75;4959226;28;20426;-78
2022/10/26 12:11:13;;;;;;;0.10;0.10;;;;;;;29.97;58.71;96735.06;4957151;28;20443;-78
2022/10/26 12:14:16;;;;;;;0.10;0.10;;;;;;;30.79;51.95;96723.38;4944711;28;20117;-77
2022/10/26 12:17:12;;;;;;;0.20;0.20;;;;;;;29.08;48.86;96728.59;4959186;28;20035;-78
2022/10/26 12:20:10;;;;;;;0.10;0.10;;;;;;;30.35;46.32;96728.63;4959091;28;20069;-78
2022/10/26 12:22:56;;;;;;;0.20;0.20;;;;;;;29.44;51.36;96732.09;4955636;28;20046;-77
2022/10/26 12:25:42;;;;;;;0.20;0.20;;;;;;;31.10;47.41;96729.69;4960609;28;20133;-77
2022/10/26 12:28:34;;;;;;;0.20;0.20;;;;;;;34.15;38.35;96729.47;4955978;28;20753;-77
2022/10/26 12:31:41;;;;;;;0.10;0.10;;;;;;;34.37;35.41;96733.03;4955026;28;20046;-78
2022/10/26 12:34:30;;;;;;;0.10;0.10;;;;;;;34.70;34.54;96736.59;4959086;28;20637;-77
2022/10/26 12:37:29;;;;;;;0.10;0.10;;;;;;;35.45;30.79;96731.66;4958417;28;20174;-77
2022/10/26 12:40:33;;;;;;;0.10;0.10;;;;;;;34.64;32.48;96739.00;4957374;28;20042;-77
2022/10/26 12:43:22;;;;;;;0.10;0.10;;;;;;;33.33;34.79;96734.00;4958007;28;20053;-77
2022/10/26 12:46:10;;;;;;;0.10;0.10;;;;;;;34.10;34.63;96738.22;4946551;28;20039;-77
2022/10/26 12:48:58;;;;;;;0.10;0.10;;;;;;;33.81;33.82;96737.34;4957488;28;20046;-77
2022/10/26 12:51:44;;;;;;;0.10;0.10;;;;;;;33.45;36.96;96737.25;4960363;28;20058;-77
2022/10/26 12:54:44;;;;;;;0.10;0.10;;;;;;;32.50;33.83;96748.56;4958140;28;20043;-78
2022/10/26 12:57:42;;;;;;;0.10;0.10;;;;;;;31.83;37.48;96749.56;4959213;28;20682;-77
2022/10/26 13:00:28;;;;;;;0.15;0.15;;;;;;;31.71;39.30;96753.34;4958823;28;20046;-78
2022/10/26 13:03:25;;;;;;;0.10;0.10;;;;;;;31.44;39.43;96752.66;4959726;28;20061;-78
2022/10/26 13:06:33;;;;;;;0.20;0.20;;;;;;;30.91;42.70;96760.22;4943779;28;20078;-77
2022/10/26 13:09:27;;;;;;;0.10;0.00;;;;;;;30.88;40.19;96760.97;4955999;28;20093;-78
2022/10/26 13:12:13;;;;;;;0.10;0.10;;;;;;;31.02;46.10;96769.44;4955907;28;20047;-78
2022/10/26 13:15:04;;;;;;;0.10;0.10;;;;;;;32.34;39.71;96768.22;4911480;28;20431;-77
2022/10/26 13:18:05;;;;;;;0.10;0.08;;;;;;;32.33;38.76;96767.41;4954170;28;20061;-78
2022/10/26 13:21:05;;;;;;;0.10;0.10;;;;;;;30.92;42.61;96764.59;4936634;28;20560;-78